sensor_id;sensor_type;location;lat;lon;timestamp;P1;durP1;ratioP1;P2;durP2;ratioP2
42124;SDS011;27787;44.594;11.046;2023-01-25T00:01:02;15.30;;;8.77;;
42124;SDS011;27787;44.594;11.046;2023-01-25T00:03:47;18.15;;;9.18;;
42124;SDS011;27787;44.594;11.046;2023-01-25T00:06:31;15.25;;;8.27;;
42124;SDS011;27787;44.594;11.046;2023-01-25T00:09:16;16.58;;;9.70;;
42124;SDS011;27787;44.594;11.046;2023-01-25T00:12:01;16.45;;;9.48;;
42124;SDS011;27787;44.594;11.046;2023-01-25T00:14:46;16.02;;;8.68;;
42124;SDS011;27787;44.594;11.046;2023-01-25T00:17:30;14.65;;;8.77;;
42124;SDS011;27787;44.594;11.046;2023-01-25T00:20:14;17.52;;;9.13;;
42124;SDS011;27787;44.594;11.046;2023-01-25T00:22:58;13.65;;;8.38;;
42124;SDS011;27787;44.594;11.046;2023-01-25T00:25:42;18.15;;;9.88;;
42124;SDS011;27787;44.594;11.046;2023-01-25T00:28:27;19.42;;;10.05;;
42124;SDS011;27787;44.594;11.046;2023-01-25T00:31:16;17.58;;;9.23;;
42124;SDS011;27787;44.594;11.046;2023-01-25T00:40:04;21.25;;;10.02;;
42124;SDS011;27787;44.594;11.046;2023-01-25T00:42:49;19.35;;;10.38;;
42124;SDS011;27787;44.594;11.046;2023-01-25T00:45:33;16.08;;;9.32;;
42124;SDS011;27787;44.594;11.046;2023-01-25T00:48:17;17.75;;;10.23;;
42124;SDS011;27787;44.594;11.046;2023-01-25T00:51:01;21.48;;;11.15;;
42124;SDS011;27787;44.594;11.046;2023-01-25T00:53:45;20.50;;;11.70;;
42124;SDS011;27787;44.594;11.046;2023-01-25T00:56:29;19.70;;;10.80;;
42124;SDS011;27787;44.594;11.046;2023-01-25T00:59:14;16.55;;;10.23;;
42124;SDS011;27787;44.594;11.046;2023-01-25T01:01:58;20.52;;;10.77;;
42124;SDS011;27787;44.594;11.046;2023-01-25T01:04:43;22.33;;;11.93;;
42124;SDS011;27787;44.594;11.046;2023-01-25T01:07:27;21.80;;;11.48;;
42124;SDS011;27787;44.594;11.046;2023-01-25T01:10:11;22.90;;;12.10;;
42124;SDS011;27787;44.594;11.046;2023-01-25T01:12:55;23.02;;;12.85;;
42124;SDS011;27787;44.594;11.046;2023-01-25T01:15:39;21.25;;;11.65;;
42124;SDS011;27787;44.594;11.046;2023-01-25T01:18:23;21.05;;;11.20;;
42124;SDS011;27787;44.594;11.046;2023-01-25T01:21:09;27.80;;;11.70;;
42124;SDS011;27787;44.594;11.046;2023-01-25T01:23:54;21.45;;;11.13;;
42124;SDS011;27787;44.594;11.046;2023-01-25T01:26:39;19.00;;;10.57;;
42124;SDS011;27787;44.594;11.046;2023-01-25T01:29:24;22.75;;;12.32;;
42124;SDS011;27787;44.594;11.046;2023-01-25T01:32:08;25.38;;;11.57;;
42124;SDS011;27787;44.594;11.046;2023-01-25T01:34:52;19.50;;;11.45;;
42124;SDS011;27787;44.594;11.046;2023-01-25T01:37:36;19.58;;;10.50;;
42124;SDS011;27787;44.594;11.046;2023-01-25T01:40:24;17.60;;;10.38;;
42124;SDS011;27787;44.594;11.046;2023-01-25T01:43:15;22.73;;;11.27;;
42124;SDS011;27787;44.594;11.046;2023-01-25T01:46:07;19.50;;;10.90;;
42124;SDS011;27787;44.594;11.046;2023-01-25T01:49:10;21.90;;;11.68;;
42124;SDS011;27787;44.594;11.046;2023-01-25T01:52:02;19.40;;;11.25;;
42124;SDS011;27787;44.594;11.046;2023-01-25T01:54:55;24.13;;;11.10;;
42124;SDS011;27787;44.594;11.046;2023-01-25T01:57:52;21.17;;;11.55;;
42124;SDS011;27787;44.594;11.046;2023-01-25T02:00:43;18.50;;;10.63;;
42124;SDS011;27787;44.594;11.046;2023-01-25T02:03:28;21.80;;;11.45;;
42124;SDS011;27787;44.594;11.046;2023-01-25T02:06:14;19.02;;;10.32;;
42124;SDS011;27787;44.594;11.046;2023-01-25T02:09:03;22.67;;;12.60;;
42124;SDS011;27787;44.594;11.046;2023-01-25T02:11:48;21.50;;;12.00;;
42124;SDS011;27787;44.594;11.046;2023-01-25T02:14:34;20.40;;;11.02;;
42124;SDS011;27787;44.594;11.046;2023-01-25T02:20:18;18.50;;;10.30;;
42124;SDS011;27787;44.594;11.046;2023-01-25T02:25:59;21.75;;;10.68;;
42124;SDS011;27787;44.594;11.046;2023-01-25T02:31:43;19.05;;;10.88;;
42124;SDS011;27787;44.594;11.046;2023-01-25T02:34:28;24.58;;;11.32;;
42124;SDS011;27787;44.594;11.046;2023-01-25T02:37:13;18.65;;;10.75;;
42124;SDS011;27787;44.594;11.046;2023-01-25T02:39:58;19.65;;;11.10;;
42124;SDS011;27787;44.594;11.046;2023-01-25T02:42:44;21.85;;;11.70;;
42124;SDS011;27787;44.594;11.046;2023-01-25T02:45:31;20.33;;;11.32;;
42124;SDS011;27787;44.594;11.046;2023-01-25T02:48:15;19.67;;;10.27;;
42124;SDS011;27787;44.594;11.046;2023-01-25T02:51:00;18.23;;;10.80;;
42124;SDS011;27787;44.594;11.046;2023-01-25T02:53:44;19.67;;;11.02;;
42124;SDS011;27787;44.594;11.046;2023-01-25T02:56:29;22.20;;;11.85;;
42124;SDS011;27787;44.594;11.046;2023-01-25T02:59:14;20.10;;;11.02;;
42124;SDS011;27787;44.594;11.046;2023-01-25T03:02:04;19.60;;;10.93;;
42124;SDS011;27787;44.594;11.046;2023-01-25T03:04:48;21.92;;;10.60;;
42124;SDS011;27787;44.594;11.046;2023-01-25T03:07:34;17.65;;;10.27;;
42124;SDS011;27787;44.594;11.046;2023-01-25T03:13:05;18.73;;;10.30;;
42124;SDS011;27787;44.594;11.046;2023-01-25T03:15:50;21.40;;;11.40;;
42124;SDS011;27787;44.594;11.046;2023-01-25T03:18:35;19.73;;;10.93;;
42124;SDS011;27787;44.594;11.046;2023-01-25T03:21:21;20.25;;;11.30;;
42124;SDS011;27787;44.594;11.046;2023-01-25T03:24:06;25.23;;;11.98;;
42124;SDS011;27787;44.594;11.046;2023-01-25T03:26:57;21.20;;;11.80;;
42124;SDS011;27787;44.594;11.046;2023-01-25T03:30:01;21.00;;;12.65;;
42124;SDS011;27787;44.594;11.046;2023-01-25T03:32:49;27.60;;;12.10;;
42124;SDS011;27787;44.594;11.046;2023-01-25T03:35:36;21.65;;;11.77;;
42124;SDS011;27787;44.594;11.046;2023-01-25T03:38:22;20.73;;;11.30;;
42124;SDS011;27787;44.594;11.046;2023-01-25T03:41:08;21.92;;;11.07;;
42124;SDS011;27787;44.594;11.046;2023-01-25T03:43:52;20.17;;;11.63;;
42124;SDS011;27787;44.594;11.046;2023-01-25T03:46:37;20.73;;;11.93;;
42124;SDS011;27787;44.594;11.046;2023-01-25T03:52:08;23.98;;;12.80;;
42124;SDS011;27787;44.594;11.046;2023-01-25T03:54:55;24.25;;;12.50;;
42124;SDS011;27787;44.594;11.046;2023-01-25T03:57:41;25.00;;;13.43;;
42124;SDS011;27787;44.594;11.046;2023-01-25T04:00:26;22.73;;;12.90;;
42124;SDS011;27787;44.594;11.046;2023-01-25T04:03:16;22.95;;;12.77;;
42124;SDS011;27787;44.594;11.046;2023-01-25T04:06:03;21.48;;;12.63;;
42124;SDS011;27787;44.594;11.046;2023-01-25T04:08:49;24.63;;;13.30;;
42124;SDS011;27787;44.594;11.046;2023-01-25T04:11:35;22.58;;;12.25;;
42124;SDS011;27787;44.594;11.046;2023-01-25T04:14:20;24.20;;;13.50;;
42124;SDS011;27787;44.594;11.046;2023-01-25T04:17:14;23.38;;;13.23;;
42124;SDS011;27787;44.594;11.046;2023-01-25T04:20:08;23.17;;;13.30;;
42124;SDS011;27787;44.594;11.046;2023-01-25T04:22:57;23.73;;;11.80;;
42124;SDS011;27787;44.594;11.046;2023-01-25T04:26:07;23.42;;;12.55;;
42124;SDS011;27787;44.594;11.046;2023-01-25T04:28:55;21.35;;;12.40;;
42124;SDS011;27787;44.594;11.046;2023-01-25T04:31:39;22.10;;;12.85;;
42124;SDS011;27787;44.594;11.046;2023-01-25T04:34:24;22.65;;;12.05;;
42124;SDS011;27787;44.594;11.046;2023-01-25T04:37:09;25.10;;;13.00;;
42124;SDS011;27787;44.594;11.046;2023-01-25T04:40:02;23.95;;;13.32;;
42124;SDS011;27787;44.594;11.046;2023-01-25T04:42:53;22.38;;;12.35;;
42124;SDS011;27787;44.594;11.046;2023-01-25T04:45:38;23.73;;;12.45;;
42124;SDS011;27787;44.594;11.046;2023-01-25T04:48:29;20.65;;;11.45;;
42124;SDS011;27787;44.594;11.046;2023-01-25T04:51:17;21.33;;;12.10;;
42124;SDS011;27787;44.594;11.046;2023-01-25T04:54:02;23.67;;;12.50;;
42124;SDS011;27787;44.594;11.046;2023-01-25T04:56:47;24.13;;;13.82;;
42124;SDS011;27787;44.594;11.046;2023-01-25T04:59:30;23.05;;;13.45;;
42124;SDS011;27787;44.594;11.046;2023-01-25T05:02:15;23.25;;;12.63;;
42124;SDS011;27787;44.594;11.046;2023-01-25T05:04:59;24.50;;;13.90;;
42124;SDS011;27787;44.594;11.046;2023-01-25T05:07:44;24.03;;;12.67;;
42124;SDS011;27787;44.594;11.046;2023-01-25T05:10:30;27.92;;;13.40;;
42124;SDS011;27787;44.594;11.046;2023-01-25T05:13:33;29.27;;;13.48;;
42124;SDS011;27787;44.594;11.046;2023-01-25T05:16:35;29.65;;;12.27;;
42124;SDS011;27787;44.594;11.046;2023-01-25T05:19:20;29.05;;;13.57;;
42124;SDS011;27787;44.594;11.046;2023-01-25T05:22:13;27.38;;;13.77;;
42124;SDS011;27787;44.594;11.046;2023-01-25T05:25:02;30.23;;;15.32;;
42124;SDS011;27787;44.594;11.046;2023-01-25T05:27:51;27.75;;;14.95;;
42124;SDS011;27787;44.594;11.046;2023-01-25T05:30:56;26.45;;;14.75;;
42124;SDS011;27787;44.594;11.046;2023-01-25T05:33:44;29.05;;;13.90;;
42124;SDS011;27787;44.594;11.046;2023-01-25T05:36:28;30.75;;;14.73;;
42124;SDS011;27787;44.594;11.046;2023-01-25T05:39:13;30.10;;;14.95;;
42124;SDS011;27787;44.594;11.046;2023-01-25T05:41:57;22.65;;;12.55;;
42124;SDS011;27787;44.594;11.046;2023-01-25T05:44:43;28.35;;;13.82;;
42124;SDS011;27787;44.594;11.046;2023-01-25T05:47:28;29.30;;;14.23;;
42124;SDS011;27787;44.594;11.046;2023-01-25T05:50:13;23.98;;;13.27;;
42124;SDS011;27787;44.594;11.046;2023-01-25T05:53:16;22.88;;;12.60;;
42124;SDS011;27787;44.594;11.046;2023-01-25T05:56:03;24.83;;;12.98;;
42124;SDS011;27787;44.594;11.046;2023-01-25T05:58:56;24.42;;;13.38;;
42124;SDS011;27787;44.594;11.046;2023-01-25T06:01:42;25.80;;;13.13;;
42124;SDS011;27787;44.594;11.046;2023-01-25T06:04:27;24.05;;;13.27;;
42124;SDS011;27787;44.594;11.046;2023-01-25T06:07:11;27.85;;;14.15;;
42124;SDS011;27787;44.594;11.046;2023-01-25T06:09:56;26.50;;;13.95;;
42124;SDS011;27787;44.594;11.046;2023-01-25T06:12:39;25.67;;;14.20;;
42124;SDS011;27787;44.594;11.046;2023-01-25T06:15:24;27.48;;;14.75;;
42124;SDS011;27787;44.594;11.046;2023-01-25T06:18:11;28.77;;;14.88;;
42124;SDS011;27787;44.594;11.046;2023-01-25T06:21:15;25.08;;;14.40;;
42124;SDS011;27787;44.594;11.046;2023-01-25T06:23:59;25.33;;;13.18;;
42124;SDS011;27787;44.594;11.046;2023-01-25T06:26:44;22.23;;;12.45;;
42124;SDS011;27787;44.594;11.046;2023-01-25T06:29:28;25.23;;;12.70;;
42124;SDS011;27787;44.594;11.046;2023-01-25T06:32:12;22.38;;;13.18;;
42124;SDS011;27787;44.594;11.046;2023-01-25T06:34:56;23.73;;;13.00;;
42124;SDS011;27787;44.594;11.046;2023-01-25T06:37:42;26.58;;;13.63;;
42124;SDS011;27787;44.594;11.046;2023-01-25T06:40:26;27.15;;;12.63;;
42124;SDS011;27787;44.594;11.046;2023-01-25T06:43:11;27.98;;;13.52;;
42124;SDS011;27787;44.594;11.046;2023-01-25T06:45:59;23.10;;;12.93;;
42124;SDS011;27787;44.594;11.046;2023-01-25T06:48:44;23.85;;;12.98;;
42124;SDS011;27787;44.594;11.046;2023-01-25T06:51:29;26.95;;;13.20;;
42124;SDS011;27787;44.594;11.046;2023-01-25T06:54:14;24.15;;;12.02;;
42124;SDS011;27787;44.594;11.046;2023-01-25T06:56:58;19.67;;;12.20;;
42124;SDS011;27787;44.594;11.046;2023-01-25T06:59:42;28.35;;;12.50;;
42124;SDS011;27787;44.594;11.046;2023-01-25T07:02:27;24.45;;;11.63;;
42124;SDS011;27787;44.594;11.046;2023-01-25T07:05:11;19.00;;;11.60;;
42124;SDS011;27787;44.594;11.046;2023-01-25T07:07:55;24.55;;;12.40;;
42124;SDS011;27787;44.594;11.046;2023-01-25T07:10:39;22.65;;;12.38;;
42124;SDS011;27787;44.594;11.046;2023-01-25T07:13:24;26.33;;;12.02;;
42124;SDS011;27787;44.594;11.046;2023-01-25T07:16:13;24.27;;;11.48;;
42124;SDS011;27787;44.594;11.046;2023-01-25T07:19:05;20.85;;;10.73;;
42124;SDS011;27787;44.594;11.046;2023-01-25T07:21:50;22.15;;;11.02;;
42124;SDS011;27787;44.594;11.046;2023-01-25T07:24:35;19.70;;;10.40;;
42124;SDS011;27787;44.594;11.046;2023-01-25T07:27:19;20.30;;;10.45;;
42124;SDS011;27787;44.594;11.046;2023-01-25T07:30:03;17.02;;;9.85;;
42124;SDS011;27787;44.594;11.046;2023-01-25T07:32:49;20.08;;;10.75;;
42124;SDS011;27787;44.594;11.046;2023-01-25T07:35:33;21.00;;;9.95;;
42124;SDS011;27787;44.594;11.046;2023-01-25T07:38:18;23.45;;;10.38;;
42124;SDS011;27787;44.594;11.046;2023-01-25T07:41:02;22.27;;;10.38;;
42124;SDS011;27787;44.594;11.046;2023-01-25T07:43:47;20.35;;;10.35;;
42124;SDS011;27787;44.594;11.046;2023-01-25T07:46:38;18.23;;;9.55;;
42124;SDS011;27787;44.594;11.046;2023-01-25T07:49:23;19.08;;;10.05;;
42124;SDS011;27787;44.594;11.046;2023-01-25T07:52:07;17.08;;;9.70;;
42124;SDS011;27787;44.594;11.046;2023-01-25T07:54:52;17.67;;;8.85;;
42124;SDS011;27787;44.594;11.046;2023-01-25T07:57:36;20.48;;;10.18;;
42124;SDS011;27787;44.594;11.046;2023-01-25T08:00:20;19.80;;;9.60;;
42124;SDS011;27787;44.594;11.046;2023-01-25T08:03:05;18.67;;;10.10;;
42124;SDS011;27787;44.594;11.046;2023-01-25T08:05:50;21.05;;;9.63;;
42124;SDS011;27787;44.594;11.046;2023-01-25T08:08:36;16.95;;;9.95;;
42124;SDS011;27787;44.594;11.046;2023-01-25T08:11:31;19.75;;;10.68;;
42124;SDS011;27787;44.594;11.046;2023-01-25T08:14:16;22.38;;;11.07;;
42124;SDS011;27787;44.594;11.046;2023-01-25T08:17:00;17.67;;;8.93;;
42124;SDS011;27787;44.594;11.046;2023-01-25T08:19:44;15.95;;;8.80;;
42124;SDS011;27787;44.594;11.046;2023-01-25T08:22:28;17.35;;;9.68;;
42124;SDS011;27787;44.594;11.046;2023-01-25T08:25:16;16.95;;;8.70;;
42124;SDS011;27787;44.594;11.046;2023-01-25T08:28:01;18.17;;;9.13;;
42124;SDS011;27787;44.594;11.046;2023-01-25T08:30:45;17.52;;;9.68;;
42124;SDS011;27787;44.594;11.046;2023-01-25T08:33:29;18.10;;;10.05;;
42124;SDS011;27787;44.594;11.046;2023-01-25T08:36:13;19.38;;;9.18;;
42124;SDS011;27787;44.594;11.046;2023-01-25T08:41:45;16.57;;;8.83;;
42124;SDS011;27787;44.594;11.046;2023-01-25T08:44:29;17.80;;;9.70;;
42124;SDS011;27787;44.594;11.046;2023-01-25T08:47:13;20.67;;;9.00;;
42124;SDS011;27787;44.594;11.046;2023-01-25T08:49:58;16.88;;;9.18;;
42124;SDS011;27787;44.594;11.046;2023-01-25T08:52:42;19.67;;;9.32;;
42124;SDS011;27787;44.594;11.046;2023-01-25T08:55:26;18.88;;;8.73;;
42124;SDS011;27787;44.594;11.046;2023-01-25T08:58:15;18.40;;;9.52;;
42124;SDS011;27787;44.594;11.046;2023-01-25T09:01:03;17.52;;;8.80;;
42124;SDS011;27787;44.594;11.046;2023-01-25T09:03:49;17.05;;;8.98;;
42124;SDS011;27787;44.594;11.046;2023-01-25T09:06:33;14.85;;;8.10;;
42124;SDS011;27787;44.594;11.046;2023-01-25T09:09:18;13.85;;;7.85;;
42124;SDS011;27787;44.594;11.046;2023-01-25T09:12:02;19.50;;;8.88;;
42124;SDS011;27787;44.594;11.046;2023-01-25T09:14:47;18.42;;;8.60;;
42124;SDS011;27787;44.594;11.046;2023-01-25T09:17:31;17.48;;;8.65;;
42124;SDS011;27787;44.594;11.046;2023-01-25T09:20:15;18.05;;;7.90;;
42124;SDS011;27787;44.594;11.046;2023-01-25T09:22:59;16.70;;;8.68;;
42124;SDS011;27787;44.594;11.046;2023-01-25T09:25:44;16.02;;;8.35;;
42124;SDS011;27787;44.594;11.046;2023-01-25T09:28:28;17.48;;;8.20;;
42124;SDS011;27787;44.594;11.046;2023-01-25T09:31:13;26.15;;;8.63;;
42124;SDS011;27787;44.594;11.046;2023-01-25T09:34:18;21.58;;;9.43;;
42124;SDS011;27787;44.594;11.046;2023-01-25T09:37:03;16.73;;;8.45;;
42124;SDS011;27787;44.594;11.046;2023-01-25T09:39:47;15.30;;;7.05;;
42124;SDS011;27787;44.594;11.046;2023-01-25T09:45:26;16.23;;;7.85;;
42124;SDS011;27787;44.594;11.046;2023-01-25T09:48:25;19.20;;;7.63;;
42124;SDS011;27787;44.594;11.046;2023-01-25T09:51:29;15.17;;;6.97;;
42124;SDS011;27787;44.594;11.046;2023-01-25T09:54:29;16.45;;;6.75;;
42124;SDS011;27787;44.594;11.046;2023-01-25T09:57:28;21.33;;;8.10;;
42124;SDS011;27787;44.594;11.046;2023-01-25T10:00:49;15.88;;;7.18;;
42124;SDS011;27787;44.594;11.046;2023-01-25T10:03:33;22.42;;;8.18;;
42124;SDS011;27787;44.594;11.046;2023-01-25T10:06:35;13.48;;;7.15;;
42124;SDS011;27787;44.594;11.046;2023-01-25T10:12:39;18.73;;;7.05;;
42124;SDS011;27787;44.594;11.046;2023-01-25T10:15:30;20.02;;;7.60;;
42124;SDS011;27787;44.594;11.046;2023-01-25T10:22:05;18.23;;;7.82;;
42124;SDS011;27787;44.594;11.046;2023-01-25T10:30:54;19.83;;;8.65;;
42124;SDS011;27787;44.594;11.046;2023-01-25T10:33:44;15.35;;;6.80;;
42124;SDS011;27787;44.594;11.046;2023-01-25T10:36:32;14.15;;;6.75;;
42124;SDS011;27787;44.594;11.046;2023-01-25T10:39:16;19.05;;;7.28;;
42124;SDS011;27787;44.594;11.046;2023-01-25T10:42:04;14.52;;;6.90;;
42124;SDS011;27787;44.594;11.046;2023-01-25T10:44:52;13.93;;;6.95;;
42124;SDS011;27787;44.594;11.046;2023-01-25T10:47:36;24.10;;;12.15;;
42124;SDS011;27787;44.594;11.046;2023-01-25T10:56:23;16.33;;;6.85;;
42124;SDS011;27787;44.594;11.046;2023-01-25T11:02:33;10.93;;;6.10;;
42124;SDS011;27787;44.594;11.046;2023-01-25T11:14:16;14.07;;;6.80;;
42124;SDS011;27787;44.594;11.046;2023-01-25T11:17:02;15.45;;;7.47;;
42124;SDS011;27787;44.594;11.046;2023-01-25T11:19:48;16.35;;;6.57;;
42124;SDS011;27787;44.594;11.046;2023-01-25T11:22:53;13.27;;;7.15;;
42124;SDS011;27787;44.594;11.046;2023-01-25T11:25:39;16.35;;;7.68;;
42124;SDS011;27787;44.594;11.046;2023-01-25T11:28:23;18.55;;;8.15;;
42124;SDS011;27787;44.594;11.046;2023-01-25T11:31:11;17.90;;;7.38;;
42124;SDS011;27787;44.594;11.046;2023-01-25T11:33:56;14.85;;;7.57;;
42124;SDS011;27787;44.594;11.046;2023-01-25T11:36:52;18.05;;;7.30;;
42124;SDS011;27787;44.594;11.046;2023-01-25T11:39:49;16.38;;;7.65;;
42124;SDS011;27787;44.594;11.046;2023-01-25T12:01:17;18.08;;;7.90;;
42124;SDS011;27787;44.594;11.046;2023-01-25T12:04:15;17.52;;;6.80;;
42124;SDS011;27787;44.594;11.046;2023-01-25T12:07:07;17.05;;;7.35;;
42124;SDS011;27787;44.594;11.046;2023-01-25T12:15:43;15.48;;;7.07;;
42124;SDS011;27787;44.594;11.046;2023-01-25T12:21:37;14.10;;;6.75;;
42124;SDS011;27787;44.594;11.046;2023-01-25T12:30:37;18.35;;;7.95;;
42124;SDS011;27787;44.594;11.046;2023-01-25T12:40:46;16.33;;;7.18;;
42124;SDS011;27787;44.594;11.046;2023-01-25T12:43:57;16.67;;;7.88;;
42124;SDS011;27787;44.594;11.046;2023-01-25T12:47:01;18.10;;;8.43;;
42124;SDS011;27787;44.594;11.046;2023-01-25T12:50:13;23.23;;;9.48;;
42124;SDS011;27787;44.594;11.046;2023-01-25T12:56:06;20.38;;;9.50;;
42124;SDS011;27787;44.594;11.046;2023-01-25T12:58:55;26.25;;;9.88;;
42124;SDS011;27787;44.594;11.046;2023-01-25T13:01:57;17.90;;;8.73;;
42124;SDS011;27787;44.594;11.046;2023-01-25T13:08:29;18.30;;;7.78;;
42124;SDS011;27787;44.594;11.046;2023-01-25T13:11:53;18.15;;;9.35;;
42124;SDS011;27787;44.594;11.046;2023-01-25T13:14:34;20.17;;;9.48;;
42124;SDS011;27787;44.594;11.046;2023-01-25T13:23:33;22.70;;;10.27;;
42124;SDS011;27787;44.594;11.046;2023-01-25T13:26:37;24.08;;;10.80;;
42124;SDS011;27787;44.594;11.046;2023-01-25T13:41:05;15.77;;;7.78;;
42124;SDS011;27787;44.594;11.046;2023-01-25T13:44:07;22.15;;;9.32;;
42124;SDS011;27787;44.594;11.046;2023-01-25T13:47:13;19.45;;;9.23;;
42124;SDS011;27787;44.594;11.046;2023-01-25T13:50:12;20.73;;;8.68;;
42124;SDS011;27787;44.594;11.046;2023-01-25T13:53:13;22.30;;;9.65;;
42124;SDS011;27787;44.594;11.046;2023-01-25T13:56:00;22.73;;;9.43;;
42124;SDS011;27787;44.594;11.046;2023-01-25T13:58:45;16.50;;;8.20;;
42124;SDS011;27787;44.594;11.046;2023-01-25T14:01:31;19.87;;;8.77;;
42124;SDS011;27787;44.594;11.046;2023-01-25T14:04:18;16.60;;;9.10;;
42124;SDS011;27787;44.594;11.046;2023-01-25T14:07:03;23.25;;;9.45;;
42124;SDS011;27787;44.594;11.046;2023-01-25T14:09:52;20.83;;;9.35;;
42124;SDS011;27787;44.594;11.046;2023-01-25T14:15:26;16.77;;;9.30;;
42124;SDS011;27787;44.594;11.046;2023-01-25T14:18:13;24.73;;;10.63;;
42124;SDS011;27787;44.594;11.046;2023-01-25T14:24:13;24.52;;;11.55;;
42124;SDS011;27787;44.594;11.046;2023-01-25T14:27:02;23.27;;;11.18;;
42124;SDS011;27787;44.594;11.046;2023-01-25T14:29:47;20.95;;;11.30;;
42124;SDS011;27787;44.594;11.046;2023-01-25T14:32:31;28.98;;;12.18;;
42124;SDS011;27787;44.594;11.046;2023-01-25T14:38:19;24.38;;;10.80;;
42124;SDS011;27787;44.594;11.046;2023-01-25T14:41:36;26.73;;;11.57;;
42124;SDS011;27787;44.594;11.046;2023-01-25T14:44:29;25.17;;;11.65;;
42124;SDS011;27787;44.594;11.046;2023-01-25T14:47:30;25.67;;;10.82;;
42124;SDS011;27787;44.594;11.046;2023-01-25T14:50:34;26.55;;;11.18;;
42124;SDS011;27787;44.594;11.046;2023-01-25T14:53:19;28.15;;;13.05;;
42124;SDS011;27787;44.594;11.046;2023-01-25T14:56:28;31.00;;;13.18;;
42124;SDS011;27787;44.594;11.046;2023-01-25T15:02:39;31.40;;;13.63;;
42124;SDS011;27787;44.594;11.046;2023-01-25T15:05:34;32.22;;;13.50;;
42124;SDS011;27787;44.594;11.046;2023-01-25T15:08:27;33.58;;;13.95;;
42124;SDS011;27787;44.594;11.046;2023-01-25T15:11:47;37.28;;;14.18;;
42124;SDS011;27787;44.594;11.046;2023-01-25T15:14:28;24.42;;;13.40;;
42124;SDS011;27787;44.594;11.046;2023-01-25T15:20:37;24.88;;;13.13;;
42124;SDS011;27787;44.594;11.046;2023-01-25T15:23:25;33.72;;;14.88;;
42124;SDS011;27787;44.594;11.046;2023-01-25T15:26:15;37.33;;;14.48;;
42124;SDS011;27787;44.594;11.046;2023-01-25T15:32:03;31.65;;;15.25;;
42124;SDS011;27787;44.594;11.046;2023-01-25T15:35:00;34.28;;;14.38;;
42124;SDS011;27787;44.594;11.046;2023-01-25T15:37:45;31.08;;;15.25;;
42124;SDS011;27787;44.594;11.046;2023-01-25T15:43:15;33.00;;;15.88;;
42124;SDS011;27787;44.594;11.046;2023-01-25T15:48:45;33.28;;;16.10;;
42124;SDS011;27787;44.594;11.046;2023-01-25T15:51:31;38.10;;;16.98;;
42124;SDS011;27787;44.594;11.046;2023-01-25T15:54:16;35.83;;;16.35;;
42124;SDS011;27787;44.594;11.046;2023-01-25T15:57:00;35.00;;;16.48;;
42124;SDS011;27787;44.594;11.046;2023-01-25T15:59:45;35.28;;;16.33;;
42124;SDS011;27787;44.594;11.046;2023-01-25T16:02:29;41.97;;;15.82;;
42124;SDS011;27787;44.594;11.046;2023-01-25T16:05:13;35.97;;;16.30;;
42124;SDS011;27787;44.594;11.046;2023-01-25T16:07:58;36.08;;;15.23;;
42124;SDS011;27787;44.594;11.046;2023-01-25T16:10:42;38.25;;;17.10;;
42124;SDS011;27787;44.594;11.046;2023-01-25T16:13:27;33.58;;;16.83;;
42124;SDS011;27787;44.594;11.046;2023-01-25T16:16:16;33.08;;;15.05;;
42124;SDS011;27787;44.594;11.046;2023-01-25T16:19:02;37.13;;;16.73;;
42124;SDS011;27787;44.594;11.046;2023-01-25T16:21:46;34.72;;;15.55;;
42124;SDS011;27787;44.594;11.046;2023-01-25T16:24:30;39.63;;;15.90;;
42124;SDS011;27787;44.594;11.046;2023-01-25T16:27:15;48.30;;;17.90;;
42124;SDS011;27787;44.594;11.046;2023-01-25T16:30:05;37.17;;;15.57;;
42124;SDS011;27787;44.594;11.046;2023-01-25T16:35:35;37.22;;;15.00;;
42124;SDS011;27787;44.594;11.046;2023-01-25T16:38:19;30.60;;;15.35;;
42124;SDS011;27787;44.594;11.046;2023-01-25T16:41:03;43.28;;;17.58;;
42124;SDS011;27787;44.594;11.046;2023-01-25T16:43:48;40.10;;;17.98;;
42124;SDS011;27787;44.594;11.046;2023-01-25T16:46:32;36.13;;;16.95;;
42124;SDS011;27787;44.594;11.046;2023-01-25T16:49:18;37.40;;;17.33;;
42124;SDS011;27787;44.594;11.046;2023-01-25T16:52:04;38.85;;;17.10;;
42124;SDS011;27787;44.594;11.046;2023-01-25T16:54:49;34.72;;;16.52;;
42124;SDS011;27787;44.594;11.046;2023-01-25T16:57:33;36.63;;;18.40;;
42124;SDS011;27787;44.594;11.046;2023-01-25T17:00:17;36.13;;;16.67;;
42124;SDS011;27787;44.594;11.046;2023-01-25T17:03:01;33.00;;;16.52;;
42124;SDS011;27787;44.594;11.046;2023-01-25T17:05:45;37.72;;;16.83;;
42124;SDS011;27787;44.594;11.046;2023-01-25T17:08:29;39.22;;;17.85;;
42124;SDS011;27787;44.594;11.046;2023-01-25T17:11:14;43.72;;;19.30;;
42124;SDS011;27787;44.594;11.046;2023-01-25T17:14:01;56.50;;;18.30;;
42124;SDS011;27787;44.594;11.046;2023-01-25T17:16:46;35.00;;;16.45;;
42124;SDS011;27787;44.594;11.046;2023-01-25T17:19:33;42.33;;;17.80;;
42124;SDS011;27787;44.594;11.046;2023-01-25T17:22:18;40.08;;;18.35;;
42124;SDS011;27787;44.594;11.046;2023-01-25T17:25:02;41.45;;;19.38;;
42124;SDS011;27787;44.594;11.046;2023-01-25T17:27:47;43.60;;;18.27;;
42124;SDS011;27787;44.594;11.046;2023-01-25T17:30:32;40.65;;;18.33;;
42124;SDS011;27787;44.594;11.046;2023-01-25T17:33:16;36.80;;;18.75;;
42124;SDS011;27787;44.594;11.046;2023-01-25T17:36:02;39.38;;;17.40;;
42124;SDS011;27787;44.594;11.046;2023-01-25T17:38:46;47.60;;;20.27;;
42124;SDS011;27787;44.594;11.046;2023-01-25T17:41:30;56.47;;;26.58;;
42124;SDS011;27787;44.594;11.046;2023-01-25T17:44:19;46.85;;;20.05;;
42124;SDS011;27787;44.594;11.046;2023-01-25T17:47:05;47.53;;;23.05;;
42124;SDS011;27787;44.594;11.046;2023-01-25T17:49:49;47.42;;;23.25;;
42124;SDS011;27787;44.594;11.046;2023-01-25T17:52:33;42.70;;;20.80;;
42124;SDS011;27787;44.594;11.046;2023-01-25T17:55:17;52.22;;;21.95;;
42124;SDS011;27787;44.594;11.046;2023-01-25T17:58:01;43.42;;;20.17;;
42124;SDS011;27787;44.594;11.046;2023-01-25T18:00:46;44.78;;;20.30;;
42124;SDS011;27787;44.594;11.046;2023-01-25T18:03:31;43.72;;;21.75;;
42124;SDS011;27787;44.594;11.046;2023-01-25T18:06:25;47.83;;;20.27;;
42124;SDS011;27787;44.594;11.046;2023-01-25T18:09:13;47.50;;;21.80;;
42124;SDS011;27787;44.594;11.046;2023-01-25T18:11:57;43.80;;;20.30;;
42124;SDS011;27787;44.594;11.046;2023-01-25T18:14:42;51.17;;;22.02;;
42124;SDS011;27787;44.594;11.046;2023-01-25T18:20:12;49.70;;;21.08;;
42124;SDS011;27787;44.594;11.046;2023-01-25T18:22:56;53.55;;;22.13;;
42124;SDS011;27787;44.594;11.046;2023-01-25T18:25:40;49.38;;;22.10;;
42124;SDS011;27787;44.594;11.046;2023-01-25T18:28:25;54.05;;;22.88;;
42124;SDS011;27787;44.594;11.046;2023-01-25T18:31:10;53.25;;;24.13;;
42124;SDS011;27787;44.594;11.046;2023-01-25T18:33:54;50.17;;;22.48;;
42124;SDS011;27787;44.594;11.046;2023-01-25T18:36:39;57.97;;;23.20;;
42124;SDS011;27787;44.594;11.046;2023-01-25T18:39:26;56.10;;;23.55;;
42124;SDS011;27787;44.594;11.046;2023-01-25T18:42:11;61.08;;;26.10;;
42124;SDS011;27787;44.594;11.046;2023-01-25T18:44:55;68.32;;;26.90;;